Time;durP1;ratioP1;P1;durP2;ratioP2;P2;SDS_P1;SDS_P2;PMS_P1;PMS_P2;Temp;Humidity;BMP_temperature;BMP_pressure;BME280_temperature;BME280_humidity;BME280_pressure;Samples;Min_cycle;Max_cycle;Signal;HPM_P1;HPM_P2
2022/09/19 00:01:49;;;;;;;12.63;9.30;;;8.90;99.90;;;;;;5102222;28;20465;-68
2022/09/19 00:04:18;;;;;;;13.73;9.40;;;8.90;99.90;;;;;;5100621;28;20462;-70
2022/09/19 00:09:31;;;;;;;10.47;9.37;;;8.90;99.90;;;;;;5097434;28;20478;-69
2022/09/19 00:12:00;;;;;;;18.80;10.57;;;8.90;99.90;;;;;;5097936;28;20494;-69
2022/09/19 00:14:31;;;;;;;12.50;10.20;;;8.90;99.90;;;;;;5094807;28;20574;-69
2022/09/19 00:17:00;;;;;;;12.97;10.80;;;8.90;99.90;;;;;;5093376;28;20465;-69
2022/09/19 00:19:29;;;;;;;10.63;9.77;;;8.80;99.90;;;;;;5100116;28;20464;-70
2022/09/19 00:21:58;;;;;;;13.10;11.80;;;8.80;99.90;;;;;;5101111;28;20948;-70
2022/09/19 00:27:12;;;;;;;15.27;10.90;;;8.80;99.90;;;;;;5095666;28;20862;-69
2022/09/19 00:29:42;;;;;;;15.70;11.40;;;8.80;99.90;;;;;;5100946;28;20489;-69
2022/09/19 00:32:12;;;;;;;20.10;10.90;;;8.80;99.90;;;;;;5100041;28;20455;-69
2022/09/19 00:34:39;;;;;;;13.83;10.70;;;8.70;99.90;;;;;;5097945;28;20852;-69
2022/09/19 00:37:07;;;;;;;15.43;10.93;;;8.80;99.90;;;;;;5096883;28;20524;-68
2022/09/19 00:39:35;;;;;;;13.07;11.73;;;8.70;99.90;;;;;;5099038;28;20464;-69
2022/09/19 00:42:02;;;;;;;11.70;10.27;;;8.70;99.90;;;;;;5098514;28;20869;-69
2022/09/19 00:45:05;;;;;;;11.70;10.90;;;8.60;99.90;;;;;;5097084;28;20538;-69
2022/09/19 00:47:38;;;;;;;12.50;11.20;;;8.60;99.90;;;;;;5012377;28;20540;-68
2022/09/19 00:50:12;;;;;;;11.43;10.30;;;8.60;99.90;;;;;;5012633;28;20466;-69
2022/09/19 00:52:45;;;;;;;14.30;11.80;;;8.60;99.90;;;;;;5058017;28;20476;-69
2022/09/19 00:55:12;;;;;;;13.00;11.70;;;8.60;99.90;;;;;;5101225;28;20494;-68
2022/09/19 00:58:05;;;;;;;12.53;11.63;;;8.60;99.90;;;;;;5098447;28;20469;-70
2022/09/19 01:00:34;;;;;;;24.80;12.50;;;8.50;99.90;;;;;;5095825;28;20992;-70
2022/09/19 01:03:02;;;;;;;14.20;11.33;;;8.50;99.90;;;;;;5104397;28;20457;-68
2022/09/19 01:05:41;;;;;;;13.70;12.00;;;8.60;99.90;;;;;;5096597;28;20820;-68
2022/09/19 01:08:37;;;;;;;16.10;12.07;;;8.50;99.90;;;;;;5095022;28;20891;-68
2022/09/19 01:11:21;;;;;;;13.13;11.80;;;8.50;99.90;;;;;;5084647;28;21073;-69
2022/09/19 01:13:55;;;;;;;13.27;11.83;;;8.50;99.90;;;;;;5099974;28;20459;-68
2022/09/19 01:16:34;;;;;;;13.03;11.80;;;8.50;99.90;;;;;;5095264;28;20858;-68
2022/09/19 01:19:09;;;;;;;12.93;11.63;;;8.50;99.90;;;;;;5099198;28;20550;-68
2022/09/19 01:21:42;;;;;;;12.30;11.40;;;8.50;99.90;;;;;;5098627;28;20493;-70
2022/09/19 01:24:34;;;;;;;19.37;11.57;;;8.50;99.90;;;;;;5098557;28;20485;-69
2022/09/19 01:27:31;;;;;;;21.90;10.93;;;8.50;99.90;;;;;;5094357;28;20452;-68
2022/09/19 01:30:03;;;;;;;12.60;11.47;;;8.50;99.90;;;;;;5073473;28;20470;-69
2022/09/19 01:32:34;;;;;;;14.53;11.73;;;8.40;99.90;;;;;;5096615;28;20458;-68
2022/09/19 01:35:05;;;;;;;14.90;12.37;;;8.40;99.90;;;;;;5101663;28;20945;-69
2022/09/19 01:37:37;;;;;;;17.33;12.17;;;8.40;99.90;;;;;;5090945;28;20457;-70
2022/09/19 01:40:06;;;;;;;13.20;11.90;;;8.40;99.90;;;;;;5097777;28;20462;-68
2022/09/19 01:42:34;;;;;;;15.70;12.10;;;8.40;99.90;;;;;;5098531;28;20468;-69
2022/09/19 01:45:03;;;;;;;13.73;12.60;;;8.40;99.90;;;;;;5096391;28;20464;-68
2022/09/19 01:47:40;;;;;;;13.33;12.13;;;8.40;99.90;;;;;;5103036;28;20476;-68
2022/09/19 01:50:11;;;;;;;14.70;13.40;;;8.40;99.90;;;;;;5096514;28;20955;-70
2022/09/19 01:52:55;;;;;;;15.53;12.00;;;8.40;99.90;;;;;;5094882;28;20804;-69
2022/09/19 01:55:26;;;;;;;17.83;12.40;;;8.40;99.90;;;;;;5094075;28;20492;-68
2022/09/19 01:58:05;;;;;;;17.13;12.73;;;8.40;99.90;;;;;;5094002;28;20474;-70
2022/09/19 02:00:37;;;;;;;13.63;12.33;;;8.30;99.90;;;;;;5091354;28;20825;-69
2022/09/19 02:03:14;;;;;;;15.00;12.40;;;8.40;99.90;;;;;;5097089;28;20465;-69
2022/09/19 02:05:50;;;;;;;13.00;12.10;;;8.30;99.90;;;;;;5099437;28;20457;-69
2022/09/19 02:08:28;;;;;;;14.87;13.50;;;8.30;99.90;;;;;;5095125;28;20478;-69
2022/09/19 02:11:00;;;;;;;14.50;13.30;;;8.30;99.90;;;;;;5097196;28;20994;-68
2022/09/19 02:13:30;;;;;;;14.63;12.97;;;8.30;99.90;;;;;;5094450;28;20556;-67
2022/09/19 02:16:05;;;;;;;13.93;12.60;;;8.20;99.90;;;;;;5093195;28;20497;-69
2022/09/19 02:18:38;;;;;;;20.37;13.87;;;8.20;99.90;;;;;;5093292;28;20464;-70
2022/09/19 02:21:07;;;;;;;14.30;13.00;;;8.20;99.90;;;;;;5090771;28;20469;-69
2022/09/19 02:23:38;;;;;;;16.53;14.13;;;8.20;99.90;;;;;;5104305;28;20549;-69
2022/09/19 02:26:09;;;;;;;14.60;13.40;;;8.20;99.90;;;;;;5093882;28;20488;-68
2022/09/19 02:28:41;;;;;;;16.67;13.83;;;8.20;99.90;;;;;;5097553;28;20477;-69
2022/09/19 02:31:11;;;;;;;25.57;14.37;;;8.10;99.90;;;;;;5095992;28;20455;-68
2022/09/19 02:33:42;;;;;;;18.53;14.30;;;8.20;99.90;;;;;;5096071;28;20458;-68
2022/09/19 02:36:15;;;;;;;14.97;13.70;;;8.20;99.90;;;;;;5093999;28;20489;-68
2022/09/19 02:38:50;;;;;;;17.83;14.60;;;8.20;99.90;;;;;;5097615;28;20887;-69
2022/09/19 02:41:22;;;;;;;19.43;13.83;;;8.20;99.90;;;;;;5096764;28;20497;-68
2022/09/19 02:43:56;;;;;;;15.30;13.73;;;8.20;99.90;;;;;;5098788;28;20459;-68
2022/09/19 02:46:32;;;;;;;29.77;14.23;;;8.20;99.90;;;;;;5091776;28;20490;-68
2022/09/19 02:49:05;;;;;;;14.37;13.27;;;8.20;99.90;;;;;;5095321;28;20984;-68
2022/09/19 02:51:37;;;;;;;20.83;14.10;;;8.20;99.90;;;;;;5091915;28;20464;-68
2022/09/19 02:54:10;;;;;;;15.27;13.80;;;8.20;99.90;;;;;;5095926;28;20465;-68
2022/09/19 02:56:41;;;;;;;21.17;14.00;;;8.20;99.90;;;;;;5096052;28;20773;-69
2022/09/19 02:59:12;;;;;;;15.60;13.97;;;8.20;99.90;;;;;;5097374;28;20544;-68
2022/09/19 03:01:45;;;;;;;15.73;13.60;;;8.10;99.90;;;;;;5094029;28;20457;-68
2022/09/19 03:04:16;;;;;;;15.53;14.23;;;8.10;99.90;;;;;;5100526;28;20458;-68
2022/09/19 03:06:50;;;;;;;16.60;14.23;;;8.20;99.90;;;;;;5097561;28;20459;-68
2022/09/19 03:09:20;;;;;;;23.83;13.83;;;8.20;99.90;;;;;;5101357;28;20480;-68
2022/09/19 03:11:55;;;;;;;16.70;15.10;;;8.20;99.90;;;;;;5097408;28;20518;-68
2022/09/19 03:14:22;;;;;;;15.50;14.00;;;8.10;99.90;;;;;;5097443;28;20823;-67
2022/09/19 03:16:56;;;;;;;15.23;14.23;;;8.10;99.90;;;;;;5093026;28;20543;-68
2022/09/19 03:19:24;;;;;;;18.73;14.73;;;8.10;99.90;;;;;;5093734;28;20500;-68
2022/09/19 03:21:53;;;;;;;15.17;14.13;;;8.10;99.90;;;;;;5095805;28;20530;-68
2022/09/19 03:24:22;;;;;;;15.77;14.57;;;8.00;99.90;;;;;;5094560;28;21323;-68
2022/09/19 03:26:51;;;;;;;15.20;13.90;;;8.00;99.90;;;;;;5100009;28;20484;-67
2022/09/19 03:29:19;;;;;;;15.50;14.10;;;8.00;99.90;;;;;;5094823;28;20488;-68
2022/09/19 03:31:50;;;;;;;22.33;14.80;;;8.00;99.90;;;;;;5094083;28;20457;-67
2022/09/19 03:34:19;;;;;;;16.27;14.90;;;8.00;99.90;;;;;;5095572;28;20824;-67
2022/09/19 03:36:47;;;;;;;16.83;15.27;;;7.90;99.90;;;;;;5098460;28;20497;-68
2022/09/19 03:39:14;;;;;;;16.83;15.30;;;7.90;99.90;;;;;;5091777;28;20511;-69
2022/09/19 03:41:41;;;;;;;21.00;15.80;;;8.00;99.90;;;;;;5100063;28;20523;-67
2022/09/19 03:44:09;;;;;;;15.53;14.17;;;8.00;99.90;;;;;;5095978;28;21029;-69
2022/09/19 03:46:36;;;;;;;15.67;14.43;;;8.00;99.90;;;;;;5094445;28;20455;-68
2022/09/19 03:49:04;;;;;;;17.73;15.47;;;8.10;99.90;;;;;;5093584;28;20481;-68
2022/09/19 03:51:34;;;;;;;17.87;15.97;;;8.00;99.90;;;;;;5100404;28;20461;-67
2022/09/19 03:54:01;;;;;;;17.40;15.43;;;8.00;99.90;;;;;;5097833;28;20543;-68
2022/09/19 03:56:28;;;;;;;16.67;15.57;;;8.10;99.90;;;;;;5097085;28;20495;-67
2022/09/19 03:58:55;;;;;;;18.20;15.20;;;8.10;99.90;;;;;;5098881;28;20465;-67
2022/09/19 04:01:22;;;;;;;16.93;15.33;;;8.20;99.90;;;;;;5096542;28;20530;-67
2022/09/19 04:03:50;;;;;;;18.10;16.40;;;8.20;99.90;;;;;;5097738;28;20457;-67
2022/09/19 04:06:18;;;;;;;16.20;14.90;;;8.30;99.90;;;;;;5093962;28;20490;-69
2022/09/19 04:08:46;;;;;;;20.13;15.33;;;8.30;99.90;;;;;;5091409;28;20471;-67
2022/09/19 04:11:14;;;;;;;18.03;16.13;;;8.20;99.90;;;;;;5096931;28;20492;-68
2022/09/19 04:13:41;;;;;;;18.57;14.80;;;8.20;99.90;;;;;;5102327;28;20467;-67
2022/09/19 04:16:10;;;;;;;21.57;17.10;;;8.30;99.90;;;;;;5096066;28;20489;-68
2022/09/19 04:18:41;;;;;;;18.07;16.57;;;8.20;99.90;;;;;;5100927;28;20466;-68
2022/09/19 04:21:08;;;;;;;18.97;16.60;;;8.20;99.90;;;;;;5094182;28;20468;-68
2022/09/19 04:23:35;;;;;;;17.70;16.20;;;8.20;99.90;;;;;;5102017;28;20461;-67
2022/09/19 04:26:04;;;;;;;22.93;17.87;;;8.20;99.90;;;;;;5092476;28;20455;-68
2022/09/19 04:28:32;;;;;;;18.20;16.60;;;8.20;99.90;;;;;;5092069;28;20575;-67
2022/09/19 04:30:59;;;;;;;18.97;17.07;;;8.20;99.90;;;;;;5098487;28;20465;-66
2022/09/19 04:33:27;;;;;;;18.57;16.67;;;8.30;99.90;;;;;;5096862;28;20463;-68
2022/09/19 04:35:59;;;;;;;21.07;17.90;;;8.30;99.90;;;;;;5098009;28;20946;-67
2022/09/19 04:38:28;;;;;;;18.70;17.00;;;8.20;99.90;;;;;;5093132;28;20978;-68
2022/09/19 04:40:56;;;;;;;17.70;16.20;;;8.30;99.90;;;;;;5096676;28;20470;-68
2022/09/19 04:43:26;;;;;;;18.27;16.40;;;8.50;99.90;;;;;;5096831;28;20454;-68
2022/09/19 04:45:54;;;;;;;21.50;16.83;;;8.60;99.90;;;;;;5093947;28;21114;-67
2022/09/19 04:48:21;;;;;;;19.53;17.53;;;8.60;99.90;;;;;;5097797;28;20463;-67
2022/09/19 04:50:50;;;;;;;18.20;16.73;;;8.60;99.90;;;;;;5091614;28;20470;-67
2022/09/19 04:53:18;;;;;;;19.10;17.20;;;8.70;99.90;;;;;;5095054;28;20558;-68
2022/09/19 04:55:49;;;;;;;18.37;16.70;;;8.60;99.90;;;;;;5099928;28;20482;-68
2022/09/19 04:58:16;;;;;;;20.43;18.37;;;8.60;99.90;;;;;;5091739;28;20505;-68
2022/09/19 05:00:46;;;;;;;19.40;17.40;;;8.70;99.90;;;;;;5090596;28;20472;-68
2022/09/19 05:03:15;;;;;;;21.57;16.90;;;8.70;99.90;;;;;;5095933;28;20513;-67
2022/09/19 05:05:44;;;;;;;19.37;17.47;;;8.70;99.90;;;;;;5095244;28;20496;-68
2022/09/19 05:08:15;;;;;;;19.60;17.53;;;8.80;99.90;;;;;;5095903;28;21019;-67
2022/09/19 05:10:42;;;;;;;17.20;15.60;;;8.80;99.90;;;;;;5098089;28;20485;-68
2022/09/19 05:13:10;;;;;;;22.03;17.07;;;8.90;99.90;;;;;;5095296;28;20760;-68
2022/09/19 05:15:41;;;;;;;18.73;16.77;;;9.00;99.90;;;;;;5096808;28;20456;-67
2022/09/19 05:18:11;;;;;;;27.20;17.97;;;9.00;99.90;;;;;;5090334;28;20468;-67
2022/09/19 05:20:38;;;;;;;17.13;15.57;;;9.10;99.90;;;;;;5095561;28;20578;-67
2022/09/19 05:23:06;;;;;;;19.03;15.60;;;9.10;99.90;;;;;;5097493;28;20471;-68
2022/09/19 05:25:37;;;;;;;19.30;16.70;;;9.10;99.90;;;;;;5096868;28;20456;-69
2022/09/19 05:28:05;;;;;;;18.30;15.77;;;9.10;99.90;;;;;;5095605;28;21019;-68
2022/09/19 05:30:33;;;;;;;17.70;16.23;;;9.20;99.90;;;;;;5096294;28;20464;-68
2022/09/19 05:33:02;;;;;;;17.47;15.83;;;9.20;99.90;;;;;;5095893;28;20835;-68
2022/09/19 05:35:31;;;;;;;16.47;15.17;;;9.30;99.90;;;;;;5100184;28;20465;-67
2022/09/19 05:37:58;;;;;;;17.53;15.77;;;9.30;99.90;;;;;;5094415;28;20525;-67
2022/09/19 05:40:27;;;;;;;25.40;15.67;;;9.30;99.90;;;;;;5096685;28;20472;-69
2022/09/19 05:42:55;;;;;;;22.37;16.07;;;9.30;99.90;;;;;;5092967;28;20756;-68
2022/09/19 05:45:23;;;;;;;22.13;15.70;;;9.30;99.90;;;;;;5099733;28;20457;-68
2022/09/19 05:47:51;;;;;;;18.03;15.83;;;9.30;99.90;;;;;;5091119;28;20463;-68
2022/09/19 05:50:18;;;;;;;17.00;15.50;;;9.40;99.90;;;;;;5097670;28;20453;-68
2022/09/19 05:55:31;;;;;;;35.47;15.70;;;9.40;99.90;;;;;;5095668;28;20453;-68
2022/09/19 05:57:59;;;;;;;28.83;15.63;;;9.40;99.90;;;;;;5092849;28;20496;-68
2022/09/19 06:00:28;;;;;;;17.40;14.50;;;9.50;99.90;;;;;;5087245;28;20954;-69
2022/09/19 06:02:56;;;;;;;28.93;14.93;;;9.50;99.90;;;;;;5090888;28;20577;-68
2022/09/19 06:05:24;;;;;;;25.50;14.83;;;9.50;99.90;;;;;;5090048;28;20505;-68
2022/09/19 06:07:55;;;;;;;15.50;14.03;;;9.50;99.90;;;;;;5100964;28;20493;-68
2022/09/19 06:10:23;;;;;;;16.13;14.60;;;9.50;99.90;;;;;;5094417;28;20552;-68
2022/09/19 06:12:49;;;;;;;15.90;14.00;;;9.50;99.90;;;;;;5098013;28;21022;-68
2022/09/19 06:15:17;;;;;;;23.07;14.30;;;9.50;99.90;;;;;;5096175;28;20460;-67
2022/09/19 06:17:48;;;;;;;20.07;14.17;;;9.50;99.90;;;;;;5093829;28;20553;-69
2022/09/19 06:20:16;;;;;;;15.30;13.57;;;9.50;99.90;;;;;;5094372;28;20851;-68
2022/09/19 06:22:43;;;;;;;16.73;13.30;;;9.60;99.90;;;;;;5092895;28;20877;-68
2022/09/19 06:25:12;;;;;;;15.90;13.80;;;9.70;99.90;;;;;;5097369;28;20463;-69
2022/09/19 06:27:39;;;;;;;18.53;13.80;;;9.80;99.90;;;;;;5095925;28;20866;-66
2022/09/19 06:30:07;;;;;;;36.03;14.23;;;9.80;99.90;;;;;;5096133;28;20853;-68
2022/09/19 06:32:34;;;;;;;15.23;12.90;;;9.90;99.90;;;;;;5093211;28;20538;-67
2022/09/19 06:35:01;;;;;;;14.03;12.27;;;10.00;99.90;;;;;;5098463;28;20456;-67
2022/09/19 06:37:30;;;;;;;18.77;12.80;;;10.10;99.90;;;;;;5095720;28;20492;-69
2022/09/19 06:39:56;;;;;;;14.27;13.00;;;10.00;99.90;;;;;;5096040;28;20929;-68
2022/09/19 06:42:25;;;;;;;14.87;12.97;;;10.10;99.90;;;;;;5093706;28;20465;-68
2022/09/19 06:44:52;;;;;;;31.47;14.07;;;10.20;99.90;;;;;;5094253;28;20844;-69
2022/09/19 06:47:19;;;;;;;21.90;12.83;;;10.40;99.90;;;;;;5099195;28;21035;-69
2022/09/19 06:49:45;;;;;;;16.20;12.00;;;10.40;99.90;;;;;;5090193;28;21042;-68
2022/09/19 06:52:13;;;;;;;36.33;13.33;;;10.40;99.90;;;;;;5085589;28;20964;-68
2022/09/19 06:54:39;;;;;;;15.60;11.70;;;10.40;99.90;;;;;;5087210;28;20459;-67
2022/09/19 06:57:07;;;;;;;14.13;10.87;;;10.40;99.90;;;;;;5088500;28;20534;-67
2022/09/19 06:59:35;;;;;;;27.33;11.83;;;10.50;99.90;;;;;;5093248;28;20464;-68
2022/09/19 07:02:01;;;;;;;19.57;9.97;;;10.60;99.90;;;;;;5097012;28;20800;-66
2022/09/19 07:04:28;;;;;;;13.60;9.83;;;10.70;99.90;;;;;;5088746;28;20458;-66
2022/09/19 07:06:56;;;;;;;14.13;8.87;;;10.90;99.90;;;;;;5092557;28;20488;-65
2022/09/19 07:09:23;;;;;;;19.63;9.00;;;11.00;99.90;;;;;;5091408;28;20478;-66
2022/09/19 07:11:56;;;;;;;14.23;8.73;;;11.00;99.90;;;;;;5094843;28;20466;-67
2022/09/19 07:14:23;;;;;;;17.53;9.33;;;11.10;99.90;;;;;;5086343;28;20964;-68
2022/09/19 07:16:52;;;;;;;20.57;9.40;;;11.20;99.90;;;;;;5089122;28;20488;-69
2022/09/19 07:19:19;;;;;;;12.60;8.80;;;11.20;99.90;;;;;;5084992;28;20813;-66
2022/09/19 07:21:46;;;;;;;12.03;9.07;;;11.10;99.90;;;;;;5092175;28;20556;-68
2022/09/19 07:24:13;;;;;;;23.47;9.77;;;11.30;99.90;;;;;;5093674;28;20458;-67
2022/09/19 07:26:40;;;;;;;18.00;9.07;;;11.20;99.90;;;;;;5096806;28;20477;-68
2022/09/19 07:29:07;;;;;;;15.47;8.17;;;11.30;99.90;;;;;;5087492;28;20485;-67
2022/09/19 07:31:35;;;;;;;10.93;8.10;;;11.40;99.90;;;;;;5094324;28;20871;-67
2022/09/19 07:34:04;;;;;;;9.63;7.80;;;11.60;99.90;;;;;;5097806;28;20995;-68
2022/09/19 07:36:31;;;;;;;11.87;8.40;;;11.70;99.90;;;;;;5097938;28;20555;-66
2022/09/19 07:38:58;;;;;;;15.97;8.50;;;11.90;99.90;;;;;;5094159;28;20467;-67
2022/09/19 07:41:25;;;;;;;14.33;8.03;;;12.00;99.90;;;;;;5084376;28;20473;-67
2022/09/19 07:43:52;;;;;;;15.77;8.70;;;12.20;99.90;;;;;;5092345;28;20454;-67
2022/09/19 07:46:19;;;;;;;14.20;9.20;;;12.20;99.90;;;;;;5096175;28;20548;-66
2022/09/19 07:48:48;;;;;;;13.93;8.80;;;12.20;99.90;;;;;;5094180;28;20988;-66
2022/09/19 07:51:17;;;;;;;17.63;8.90;;;12.30;99.90;;;;;;5092749;28;21563;-68
2022/09/19 07:53:44;;;;;;;12.97;9.00;;;12.50;99.90;;;;;;5096893;28;20968;-68
2022/09/19 07:56:11;;;;;;;11.70;9.67;;;12.50;99.90;;;;;;5095124;28;20473;-69
2022/09/19 07:58:39;;;;;;;10.00;8.80;;;12.30;99.90;;;;;;5095363;28;20498;-67
2022/09/19 08:01:07;;;;;;;13.33;9.17;;;12.50;99.90;;;;;;5090585;28;20956;-68
2022/09/19 08:03:34;;;;;;;20.63;9.90;;;12.80;99.90;;;;;;5096609;28;20534;-68
2022/09/19 08:06:02;;;;;;;16.90;9.70;;;12.80;99.90;;;;;;5099964;28;20449;-68
2022/09/19 08:08:31;;;;;;;31.27;9.40;;;12.80;99.90;;;;;;5098057;28;20481;-68
2022/09/19 08:11:01;;;;;;;13.67;10.90;;;12.90;99.90;;;;;;5092018;28;20526;-67
2022/09/19 08:13:29;;;;;;;14.73;9.87;;;13.00;99.90;;;;;;5090727;28;20464;-66
2022/09/19 08:15:57;;;;;;;21.33;10.40;;;13.10;99.90;;;;;;5095468;28;20511;-66
2022/09/19 08:18:26;;;;;;;12.60;10.03;;;13.20;99.90;;;;;;5091906;28;20590;-67
2022/09/19 08:20:53;;;;;;;15.10;11.37;;;13.20;99.90;;;;;;5096589;28;20493;-67
2022/09/19 08:23:21;;;;;;;11.47;10.27;;;13.10;99.90;;;;;;5095066;28;20457;-68
2022/09/19 08:25:53;;;;;;;12.23;11.03;;;13.30;99.90;;;;;;5095559;28;20528;-67
2022/09/19 08:28:21;;;;;;;15.57;11.00;;;13.50;99.90;;;;;;5090905;28;20478;-67
2022/09/19 08:30:48;;;;;;;11.73;10.60;;;13.80;99.90;;;;;;5097115;28;20465;-68
2022/09/19 08:33:18;;;;;;;14.73;11.03;;;13.80;99.90;;;;;;5093011;28;20987;-68
2022/09/19 08:35:46;;;;;;;11.57;10.60;;;13.70;99.90;;;;;;5091856;28;20832;-66
2022/09/19 08:38:13;;;;;;;12.10;11.00;;;13.80;99.90;;;;;;5091687;28;20477;-68
2022/09/19 08:41:09;;;;;;;12.03;11.17;;;13.90;99.90;;;;;;5097009;28;20469;-68
2022/09/19 08:43:40;;;;;;;19.37;11.60;;;14.10;99.90;;;;;;5093813;28;20518;-67
2022/09/19 08:46:14;;;;;;;21.77;12.20;;;14.30;99.90;;;;;;5092131;28;21002;-68
2022/09/19 08:48:50;;;;;;;13.93;12.67;;;14.50;99.90;;;;;;5090854;28;20457;-67
2022/09/19 08:51:22;;;;;;;16.30;12.33;;;14.70;99.90;;;;;;5094295;28;21052;-68
2022/09/19 08:53:55;;;;;;;14.43;13.07;;;15.00;99.90;;;;;;5096332;28;21031;-67
2022/09/19 08:56:23;;;;;;;14.47;13.27;;;15.00;99.90;;;;;;5090415;28;20458;-67
2022/09/19 08:58:55;;;;;;;22.90;13.33;;;15.10;99.90;;;;;;5092231;28;20485;-66
2022/09/19 09:01:23;;;;;;;23.00;14.20;;;15.10;99.90;;;;;;5096649;28;20510;-66
2022/09/19 09:04:07;;;;;;;16.33;12.80;;;15.10;99.90;;;;;;5090500;28;20461;-68
2022/09/19 09:06:40;;;;;;;14.67;13.40;;;15.10;99.90;;;;;;5091674;28;20450;-67
2022/09/19 09:09:17;;;;;;;14.97;13.50;;;15.20;99.90;;;;;;5095978;28;20478;-67
2022/09/19 09:11:56;;;;;;;22.53;14.03;;;15.40;99.90;;;;;;5100283;28;20453;-67
2022/09/19 09:14:29;;;;;;;18.87;14.37;;;15.50;99.90;;;;;;5090486;28;20457;-68
2022/09/19 09:17:06;;;;;;;18.47;14.10;;;15.50;99.90;;;;;;5093427;28;20474;-66
2022/09/19 09:19:49;;;;;;;23.23;13.90;;;15.50;99.90;;;;;;5095016;28;20888;-67
2022/09/19 09:22:21;;;;;;;14.73;13.43;;;15.40;99.90;;;;;;5094291;28;20955;-67
2022/09/19 09:24:52;;;;;;;16.47;14.17;;;15.20;99.90;;;;;;5090693;28;20462;-68
2022/09/19 09:27:24;;;;;;;16.30;13.70;;;15.20;99.90;;;;;;5093362;28;20458;-68
2022/09/19 09:29:54;;;;;;;19.07;13.47;;;15.60;99.90;;;;;;5091013;28;20497;-67
2022/09/19 09:32:26;;;;;;;14.13;12.73;;;16.20;99.90;;;;;;5091449;28;20460;-69
2022/09/19 09:34:59;;;;;;;19.40;13.50;;;16.90;99.90;;;;;;5096692;28;20735;-69
2022/09/19 09:37:30;;;;;;;20.83;15.20;;;17.00;99.90;;;;;;5090160;28;20575;-69
2022/09/19 09:40:09;;;;;;;16.30;14.73;;;16.50;99.90;;;;;;5093379;28;20470;-68
2022/09/19 09:42:45;;;;;;;44.47;14.70;;;15.90;99.90;;;;;;5091531;28;20465;-67
2022/09/19 09:45:20;;;;;;;16.33;14.47;;;15.80;99.90;;;;;;5090442;28;20521;-70
2022/09/19 09:47:58;;;;;;;15.10;13.53;;;15.90;99.90;;;;;;5090393;28;20465;-69
2022/09/19 09:50:43;;;;;;;15.57;14.10;;;16.30;99.90;;;;;;5092167;28;20466;-70
2022/09/19 09:53:20;;;;;;;17.30;15.30;;;16.60;99.90;;;;;;5095412;28;20540;-70
2022/09/19 09:58:50;;;;;;;16.47;14.83;;;16.80;99.90;;;;;;5091722;28;20529;-68
2022/09/19 10:04:29;;;;;;;19.03;16.13;;;17.20;99.90;;;;;;5092987;28;20461;-69
2022/09/19 10:07:09;;;;;;;15.57;14.57;;;17.90;99.90;;;;;;5090639;28;20855;-68
2022/09/19 10:09:41;;;;;;;16.57;15.23;;;18.40;99.90;;;;;;5095521;28;20481;-69
2022/09/19 10:12:21;;;;;;;17.87;16.30;;;18.10;99.90;;;;;;5095005;28;20515;-69
2022/09/19 10:14:54;;;;;;;16.30;15.10;;;17.60;99.90;;;;;;5094763;28;20453;-69
2022/09/19 10:17:23;;;;;;;16.43;15.03;;;16.90;99.90;;;;;;5090500;28;20493;-69
2022/09/19 10:19:56;;;;;;;16.57;15.43;;;16.90;99.90;;;;;;5091485;28;20464;-69
2022/09/19 10:22:23;;;;;;;16.03;14.53;;;16.90;99.90;;;;;;5093992;28;20457;-69
2022/09/19 10:24:53;;;;;;;15.10;14.10;;;17.20;99.90;;;;;;5090076;28;20465;-69
2022/09/19 10:27:23;;;;;;;15.50;14.40;;;17.40;99.90;;;;;;5093977;28;20945;-69
2022/09/19 10:29:56;;;;;;;15.40;14.40;;;17.80;99.90;;;;;;5090869;28;21020;-69
2022/09/19 10:32:24;;;;;;;16.47;14.90;;;18.60;99.90;;;;;;5090233;28;20599;-68
2022/09/19 10:34:52;;;;;;;16.13;14.83;;;18.50;99.90;;;;;;5094749;28;20902;-67
2022/09/19 10:37:25;;;;;;;16.00;15.00;;;18.60;99.90;;;;;;5090509;28;21097;-68
2022/09/19 10:39:52;;;;;;;16.90;15.10;;;18.70;99.90;;;;;;5091365;28;20453;-68
2022/09/19 10:42:40;;;;;;;16.93;15.50;;;19.00;99.90;;;;;;5093836;28;20469;-68
2022/09/19 10:45:19;;;;;;;16.53;15.33;;;19.20;99.90;;;;;;5093783;28;20453;-67
2022/09/19 10:47:47;;;;;;;18.23;16.10;;;19.30;99.90;;;;;;5091999;28;20946;-67
2022/09/19 10:50:17;;;;;;;18.10;16.30;;;18.90;99.90;;;;;;5092317;28;20516;-67
2022/09/19 10:52:46;;;;;;;17.23;15.70;;;18.60;99.90;;;;;;5091734;28;20522;-69
2022/09/19 10:55:20;;;;;;;18.07;16.30;;;18.30;99.90;;;;;;5089724;28;20461;-68
2022/09/19 10:57:51;;;;;;;18.70;15.83;;;18.30;99.90;;;;;;5091940;28;20504;-69
2022/09/19 11:00:28;;;;;;;16.10;14.87;;;17.80;99.90;;;;;;5093182;28;20795;-68
2022/09/19 11:03:01;;;;;;;16.00;14.63;;;17.90;99.90;;;;;;5094030;28;20461;-68
2022/09/19 11:05:30;;;;;;;16.33;14.70;;;18.50;99.90;;;;;;5087753;28;20960;-69
2022/09/19 11:07:59;;;;;;;23.90;15.70;;;19.20;99.90;;;;;;5092936;28;20477;-68
2022/09/19 11:10:40;;;;;;;15.30;14.30;;;19.50;99.90;;;;;;5091801;28;20976;-69
2022/09/19 11:13:12;;;;;;;17.10;15.40;;;19.50;99.90;;;;;;5091715;28;20553;-68
2022/09/19 11:15:58;;;;;;;16.10;14.80;;;19.70;99.90;;;;;;5094348;28;20557;-70
2022/09/19 11:18:37;;;;;;;21.03;15.50;;;19.90;99.90;;;;;;5088511;28;20487;-68
2022/09/19 11:21:12;;;;;;;16.93;15.63;;;19.70;99.90;;;;;;5087494;28;20465;-69
2022/09/19 11:24:03;;;;;;;16.93;15.40;;;20.40;99.90;;;;;;5088603;28;20470;-69
2022/09/19 11:26:57;;;;;;;16.80;15.07;;;20.70;99.90;;;;;;5087780;28;20465;-68
2022/09/19 11:29:45;;;;;;;16.17;15.07;;;20.70;99.90;;;;;;5091212;28;20945;-69
2022/09/19 11:32:34;;;;;;;17.07;15.10;;;20.90;99.90;;;;;;5088941;28;20465;-68
2022/09/19 11:35:08;;;;;;;16.73;15.20;;;20.90;99.90;;;;;;5098063;28;20554;-69
2022/09/19 11:37:46;;;;;;;19.00;15.43;;;21.20;99.90;;;;;;5091088;28;20789;-69
2022/09/19 11:40:30;;;;;;;16.50;15.10;;;20.60;99.90;;;;;;5087943;28;20462;-68
2022/09/19 11:43:12;;;;;;;17.60;15.97;;;20.80;99.90;;;;;;5090773;28;20457;-69
2022/09/19 11:45:51;;;;;;;16.10;14.83;;;20.00;99.90;;;;;;5089271;28;20459;-68
2022/09/19 11:48:39;;;;;;;15.70;14.60;;;19.80;99.90;;;;;;5090469;28;20463;-69
2022/09/19 11:51:14;;;;;;;16.10;14.80;;;20.10;99.90;;;;;;5088446;28;20465;-69
2022/09/19 11:53:52;;;;;;;16.90;15.43;;;20.60;99.90;;;;;;5095907;28;20457;-69
2022/09/19 11:56:36;;;;;;;17.50;16.10;;;20.80;99.90;;;;;;5089551;28;20456;-68
2022/09/19 11:59:14;;;;;;;16.97;15.87;;;21.00;99.90;;;;;;5089249;28;20584;-69
2022/09/19 12:01:52;;;;;;;16.97;15.67;;;20.30;99.90;;;;;;5092738;28;20458;-69
2022/09/19 12:04:32;;;;;;;18.30;16.50;;;20.30;99.90;;;;;;5092552;28;20461;-69
2022/09/19 12:07:25;;;;;;;18.70;16.70;;;20.10;99.90;;;;;;5091414;28;20523;-70
2022/09/19 12:09:57;;;;;;;19.53;17.53;;;19.20;99.90;;;;;;5092145;28;20479;-70
2022/09/19 12:12:28;;;;;;;16.93;15.70;;;18.80;99.90;;;;;;5087228;28;20639;-68
2022/09/19 12:14:58;;;;;;;15.73;14.80;;;17.70;99.90;;;;;;5085392;28;20476;-68
2022/09/19 12:17:30;;;;;;;15.63;14.73;;;15.90;99.90;;;;;;5090807;28;20932;-66
2022/09/19 12:20:07;;;;;;;20.50;19.10;;;14.90;99.90;;;;;;5088362;28;20500;-66
2022/09/19 12:22:35;;;;;;;22.20;18.87;;;13.80;99.90;;;;;;5092583;28;20880;-69
2022/09/19 12:25:08;;;;;;;18.63;16.87;;;13.10;99.90;;;;;;5095574;28;20462;-70
2022/09/19 12:27:40;;;;;;;17.67;16.37;;;12.50;99.90;;;;;;5093097;28;20492;-69
2022/09/19 12:30:14;;;;;;;15.67;14.87;;;12.20;99.90;;;;;;5099670;28;20469;-70
2022/09/19 12:32:47;;;;;;;16.20;15.10;;;12.00;99.90;;;;;;5094626;28;20861;-70
2022/09/19 12:35:22;;;;;;;14.97;14.10;;;11.80;99.90;;;;;;5091871;28;20450;-68
2022/09/19 12:37:58;;;;;;;14.53;13.70;;;11.80;99.90;;;;;;5092939;28;20982;-70
2022/09/19 12:40:31;;;;;;;15.00;13.63;;;11.70;99.90;;;;;;5093482;28;20453;-68
2022/09/19 12:43:10;;;;;;;14.00;12.93;;;11.70;99.90;;;;;;5093903;28;20486;-71
2022/09/19 12:45:44;;;;;;;14.17;12.80;;;11.80;99.90;;;;;;5095952;28;20825;-70
2022/09/19 12:48:19;;;;;;;12.23;11.70;;;11.80;99.90;;;;;;5095721;28;20656;-70
2022/09/19 12:50:51;;;;;;;13.00;11.87;;;12.00;99.90;;;;;;5092916;28;20543;-70
2022/09/19 12:53:27;;;;;;;12.80;11.87;;;12.10;99.90;;;;;;5094901;28;20454;-68
2022/09/19 12:56:02;;;;;;;11.97;11.00;;;12.30;99.90;;;;;;5093089;28;20458;-70
2022/09/19 12:58:36;;;;;;;11.47;10.57;;;12.50;99.90;;;;;;5093283;28;20987;-70
2022/09/19 13:01:14;;;;;;;13.93;11.57;;;12.70;99.90;;;;;;5093202;28;21255;-68
2022/09/19 13:03:46;;;;;;;11.77;10.60;;;12.90;99.90;;;;;;5095869;28;20554;-69
2022/09/19 13:06:19;;;;;;;12.40;8.90;;;13.20;99.90;;;;;;5098650;28;20586;-69
2022/09/19 13:08:50;;;;;;;9.33;8.47;;;13.50;99.90;;;;;;5097813;28;21011;-69
2022/09/19 13:11:24;;;;;;;10.37;9.10;;;13.60;99.90;;;;;;5094329;28;20469;-68